createdAt,value
2022-10-25T00:01:58.278Z,13.48
2022-10-25T00:04:27.309Z,13.51
2022-10-25T00:06:56.793Z,13.50
2022-10-25T00:09:24.951Z,13.51
2022-10-25T00:11:53.030Z,13.50
2022-10-25T00:14:21.185Z,13.48
2022-10-25T00:16:49.298Z,13.49
2022-10-25T00:19:17.342Z,13.50
2022-10-25T00:21:45.433Z,13.50
2022-10-25T00:24:15.542Z,13.49
2022-10-25T00:26:43.829Z,13.48
2022-10-25T00:29:13.382Z,13.49
2022-10-25T00:31:41.537Z,13.47
2022-10-25T00:34:09.681Z,13.47
2022-10-25T00:36:37.886Z,13.46
2022-10-25T00:39:06.119Z,13.46
2022-10-25T00:41:36.142Z,13.48
2022-10-25T00:44:52.658Z,13.48
2022-10-25T00:47:46.141Z,13.47
2022-10-25T00:50:23.307Z,13.49
2022-10-25T00:52:55.158Z,13.52
2022-10-25T00:55:25.385Z,13.54
2022-10-25T00:58:00.842Z,13.56
2022-10-25T01:00:29.022Z,13.58
2022-10-25T01:02:57.271Z,13.61
2022-10-25T01:05:25.430Z,13.62
2022-10-25T01:07:53.676Z,13.68
2022-10-25T01:10:21.884Z,13.79
2022-10-25T01:12:52.059Z,13.92
2022-10-25T01:15:26.441Z,14.06
2022-10-25T01:18:04.850Z,14.15
2022-10-25T01:21:29.733Z,14.23
2022-10-25T01:24:37.601Z,14.25
2022-10-25T01:30:53.281Z,14.23
2022-10-25T01:33:27.445Z,14.21
2022-10-25T01:36:06.301Z,14.26
2022-10-25T01:38:44.078Z,14.31
2022-10-25T01:41:23.349Z,14.36
2022-10-25T01:44:06.734Z,14.38
2022-10-25T01:46:46.206Z,14.48
2022-10-25T01:49:21.090Z,14.53
2022-10-25T01:51:49.168Z,14.57
2022-10-25T01:54:25.047Z,14.61
2022-10-25T01:57:09.424Z,14.65
2022-10-25T02:00:11.260Z,14.67
2022-10-25T02:02:58.442Z,14.69
2022-10-25T02:05:36.451Z,14.72
2022-10-25T02:08:11.314Z,14.75
2022-10-25T02:10:43.439Z,14.67
2022-10-25T02:13:21.558Z,14.58
2022-10-25T02:15:58.327Z,14.52
2022-10-25T02:21:07.070Z,14.50
2022-10-25T02:23:36.891Z,14.47
2022-10-25T02:26:08.933Z,14.46
2022-10-25T02:28:41.355Z,14.46
2022-10-25T02:31:14.462Z,14.43
2022-10-25T02:33:45.694Z,14.41
2022-10-25T02:36:17.421Z,14.41
2022-10-25T02:38:46.271Z,14.38
2022-10-25T02:41:14.540Z,14.39
2022-10-25T02:43:43.053Z,14.41
2022-10-25T02:46:15.606Z,14.40
2022-10-25T02:48:46.139Z,14.41
2022-10-25T02:51:14.891Z,14.41
2022-10-25T02:53:43.531Z,14.41
2022-10-25T02:56:15.883Z,14.42
2022-10-25T02:58:45.437Z,14.41
2022-10-25T03:01:14.418Z,14.41
2022-10-25T03:03:45.155Z,14.38
2022-10-25T03:06:16.263Z,14.37
2022-10-25T03:08:46.203Z,14.33
2022-10-25T03:11:16.758Z,14.34
2022-10-25T03:13:44.928Z,14.36
2022-10-25T03:16:13.294Z,14.35
2022-10-25T03:18:41.477Z,14.36
2022-10-25T03:21:11.018Z,14.37
2022-10-25T03:23:39.336Z,14.37
2022-10-25T03:26:07.492Z,14.36
2022-10-25T03:28:35.548Z,14.34
2022-10-25T03:31:03.734Z,14.31
2022-10-25T03:33:31.901Z,14.28
2022-10-25T03:35:59.987Z,14.25
2022-10-25T03:38:29.413Z,14.21
2022-10-25T03:40:57.514Z,14.16
2022-10-25T03:43:25.893Z,14.16
2022-10-25T03:45:54.307Z,14.16
2022-10-25T03:48:22.446Z,14.19
2022-10-25T03:50:50.545Z,14.17
2022-10-25T03:53:18.594Z,14.15
2022-10-25T03:55:48.202Z,14.16
2022-10-25T03:58:16.381Z,14.15
2022-10-25T04:00:44.574Z,14.14
2022-10-25T04:03:12.859Z,14.15
2022-10-25T04:05:40.954Z,14.12
2022-10-25T04:08:09.146Z,14.09
2022-10-25T04:10:37.250Z,14.05
2022-10-25T04:13:06.820Z,14.04
2022-10-25T04:15:34.911Z,14.04
2022-10-25T04:18:03.067Z,14.00
2022-10-25T04:20:31.143Z,13.96
2022-10-25T04:22:59.679Z,13.91
2022-10-25T04:25:29.686Z,13.87
2022-10-25T04:28:00.180Z,13.86
2022-10-25T04:30:31.955Z,13.84
2022-10-25T04:33:01.834Z,13.81
2022-10-25T04:35:29.929Z,13.79
2022-10-25T04:37:58.869Z,13.78
2022-10-25T04:40:27.184Z,13.75
2022-10-25T04:42:55.275Z,13.73
2022-10-25T04:45:23.398Z,13.72
2022-10-25T04:47:52.897Z,13.69
2022-10-25T04:50:21.207Z,13.69
2022-10-25T04:52:49.497Z,13.67
2022-10-25T04:55:17.998Z,13.69
2022-10-25T04:57:46.126Z,13.69
2022-10-25T05:00:15.476Z,13.69
2022-10-25T05:02:43.739Z,13.67
2022-10-25T05:05:13.253Z,13.69
2022-10-25T05:07:41.390Z,13.72
2022-10-25T05:10:10.427Z,13.72
2022-10-25T05:12:39.307Z,13.69
2022-10-25T05:15:09.306Z,13.67
2022-10-25T05:17:38.020Z,13.67
2022-10-25T05:20:07.836Z,13.64
2022-10-25T05:22:37.363Z,13.64
2022-10-25T05:25:06.591Z,13.66
2022-10-25T05:27:39.299Z,13.72
2022-10-25T05:30:09.126Z,13.78
2022-10-25T05:32:37.481Z,13.80
2022-10-25T05:35:06.644Z,13.79
2022-10-25T05:37:36.132Z,13.84
2022-10-25T05:40:04.737Z,13.89
2022-10-25T05:42:32.817Z,13.93
2022-10-25T05:45:00.931Z,13.95
2022-10-25T05:47:29.022Z,13.94
2022-10-25T05:49:57.446Z,13.93
2022-10-25T05:52:25.625Z,13.89
2022-10-25T05:54:55.127Z,13.90
2022-10-25T05:57:23.255Z,13.91
2022-10-25T05:59:51.395Z,13.93
2022-10-25T06:02:21.208Z,13.94
2022-10-25T06:04:52.320Z,13.91
2022-10-25T06:07:20.916Z,13.85
2022-10-25T06:09:49.506Z,13.83
2022-10-25T06:12:19.030Z,13.85
2022-10-25T06:14:47.069Z,13.90
2022-10-25T06:17:16.584Z,13.96
2022-10-25T06:19:44.741Z,14.01
2022-10-25T06:22:13.080Z,14.00
2022-10-25T06:24:41.169Z,14.00
2022-10-25T06:27:09.288Z,14.01
2022-10-25T06:29:38.796Z,14.06
2022-10-25T06:32:07.063Z,14.07
2022-10-25T06:34:35.150Z,14.10
2022-10-25T06:37:03.325Z,14.10
2022-10-25T06:39:31.401Z,14.06
2022-10-25T06:41:59.442Z,14.07
2022-10-25T06:44:27.593Z,14.04
2022-10-25T06:47:16.302Z,13.98
2022-10-25T06:49:44.889Z,13.92
2022-10-25T06:52:13.019Z,13.88
2022-10-25T06:54:41.093Z,13.84
2022-10-25T06:57:09.257Z,13.82
2022-10-25T06:59:37.345Z,13.82
2022-10-25T07:02:07.064Z,13.81
2022-10-25T07:04:35.247Z,13.81
2022-10-25T07:07:03.480Z,13.82
2022-10-25T07:09:31.716Z,13.85
2022-10-25T07:11:59.772Z,13.90
2022-10-25T07:14:27.927Z,13.90
2022-10-25T07:16:56.030Z,13.91
2022-10-25T07:19:25.704Z,13.94
2022-10-25T07:21:53.895Z,13.98
2022-10-25T07:24:22.306Z,14.02
2022-10-25T07:26:50.566Z,14.03
2022-10-25T07:29:18.691Z,14.09
2022-10-25T07:31:46.803Z,14.14
2022-10-25T07:34:16.543Z,14.16
2022-10-25T07:36:45.980Z,14.18
2022-10-25T07:39:15.378Z,14.29
2022-10-25T07:41:43.444Z,14.41
2022-10-25T07:44:16.088Z,14.47
2022-10-25T07:46:45.014Z,14.45
2022-10-25T07:49:13.148Z,14.49
2022-10-25T07:51:41.223Z,14.51
2022-10-25T07:54:11.473Z,14.55
2022-10-25T07:56:39.559Z,14.63
2022-10-25T07:59:07.717Z,14.65
2022-10-25T08:01:37.499Z,14.69
2022-10-25T08:04:06.250Z,14.75
2022-10-25T08:06:36.066Z,14.78
2022-10-25T08:09:14.374Z,14.76
2022-10-25T08:11:49.853Z,14.78
2022-10-25T08:14:18.021Z,14.77
2022-10-25T08:16:46.164Z,14.84
2022-10-25T08:19:14.263Z,14.92
2022-10-25T08:21:42.396Z,14.97
2022-10-25T08:24:11.002Z,14.93
2022-10-25T08:26:39.382Z,14.93
2022-10-25T08:29:08.896Z,14.98
2022-10-25T08:31:37.210Z,15.00
2022-10-25T08:34:05.637Z,15.01
2022-10-25T08:36:33.781Z,15.07
2022-10-25T08:39:02.423Z,15.05
2022-10-25T08:41:44.271Z,15.04
2022-10-25T08:44:34.134Z,15.13
2022-10-25T08:47:08.795Z,15.27
2022-10-25T08:49:46.929Z,15.45
2022-10-25T08:52:22.491Z,15.63
2022-10-25T08:54:51.248Z,15.80
2022-10-25T08:57:24.991Z,15.96
2022-10-25T08:59:57.508Z,16.09
2022-10-25T09:02:37.491Z,16.20
2022-10-25T09:05:14.065Z,16.24
2022-10-25T09:08:24.429Z,16.31
2022-10-25T09:10:59.839Z,16.35
2022-10-25T09:13:42.142Z,16.39
2022-10-25T09:16:17.677Z,16.43
2022-10-25T09:18:50.879Z,16.46
2022-10-25T09:21:24.235Z,16.56
2022-10-25T09:24:00.962Z,16.67
2022-10-25T09:26:42.606Z,16.70
2022-10-25T09:29:24.535Z,16.70
2022-10-25T09:31:59.343Z,16.75
2022-10-25T09:34:32.980Z,16.81
2022-10-25T09:37:10.698Z,16.76
2022-10-25T09:39:43.714Z,16.74
2022-10-25T09:42:24.675Z,16.78
2022-10-25T09:44:55.996Z,16.87
2022-10-25T09:47:38.848Z,16.96
2022-10-25T09:50:13.633Z,17.03
2022-10-25T09:52:50.347Z,17.12
2022-10-25T09:55:33.588Z,17.11
2022-10-25T09:58:04.142Z,17.00
2022-10-25T10:00:41.399Z,16.85
2022-10-25T10:03:13.345Z,16.78
2022-10-25T10:05:45.560Z,16.73
2022-10-25T10:08:13.760Z,16.73
2022-10-25T10:10:43.176Z,16.80
2022-10-25T10:13:19.495Z,16.93
2022-10-25T10:15:54.796Z,17.02
2022-10-25T10:18:30.649Z,17.15
2022-10-25T10:21:07.029Z,17.23
2022-10-25T10:23:45.450Z,17.24
2022-10-25T10:26:22.539Z,17.23
2022-10-25T10:28:53.523Z,17.27
2022-10-25T10:31:21.805Z,17.39
2022-10-25T10:33:52.741Z,17.50
2022-10-25T10:36:27.619Z,17.47
2022-10-25T10:39:20.230Z,17.36
2022-10-25T10:42:03.396Z,17.36
2022-10-25T10:44:34.776Z,17.32
2022-10-25T10:47:11.685Z,17.25
2022-10-25T10:49:43.362Z,17.21
2022-10-25T10:52:30.105Z,17.20
2022-10-25T10:54:59.589Z,17.22
2022-10-25T10:57:33.656Z,17.23
2022-10-25T11:00:02.859Z,17.26
2022-10-25T11:02:40.692Z,17.37
2022-10-25T11:05:24.662Z,17.54
2022-10-25T11:07:58.532Z,17.78
2022-10-25T11:10:35.017Z,18.02
2022-10-25T11:13:16.249Z,18.09
2022-10-25T11:16:33.918Z,18.04
2022-10-25T11:19:23.327Z,18.15
2022-10-25T11:22:07.468Z,18.24
2022-10-25T11:24:45.600Z,18.21
2022-10-25T11:27:22.545Z,18.14
2022-10-25T11:30:04.833Z,18.06
2022-10-25T11:33:13.512Z,18.10
2022-10-25T11:35:53.079Z,18.11
2022-10-25T11:38:32.908Z,18.13
2022-10-25T11:41:13.430Z,18.15
2022-10-25T11:43:59.922Z,18.23
2022-10-25T11:46:36.183Z,18.34
2022-10-25T11:49:23.394Z,18.33
2022-10-25T11:52:10.145Z,18.26
2022-10-25T11:54:46.391Z,18.28
2022-10-25T11:57:26.546Z,18.42
2022-10-25T12:00:06.817Z,18.53
2022-10-25T12:02:58.462Z,18.52
2022-10-25T12:05:34.687Z,18.71
2022-10-25T12:08:18.145Z,18.94
2022-10-25T12:10:52.230Z,19.07
2022-10-25T12:13:27.611Z,19.16
2022-10-25T12:15:58.833Z,19.11
2022-10-25T12:18:34.583Z,19.11
2022-10-25T12:21:03.732Z,19.22
2022-10-25T12:23:39.787Z,19.28
2022-10-25T12:26:18.712Z,19.32
2022-10-25T12:28:50.013Z,19.31
2022-10-25T12:31:21.732Z,19.17
2022-10-25T12:33:55.471Z,18.94
2022-10-25T12:36:32.557Z,18.76
2022-10-25T12:39:04.406Z,18.66
2022-10-25T12:41:38.308Z,18.60
2022-10-25T12:44:30.648Z,18.72
2022-10-25T12:47:21.692Z,18.82
2022-10-25T12:50:09.883Z,18.86
2022-10-25T12:52:41.047Z,18.84
2022-10-25T12:55:37.966Z,19.35
2022-10-25T12:58:35.071Z,19.53
2022-10-25T13:01:27.199Z,19.38
2022-10-25T13:04:33.074Z,19.34
2022-10-25T13:07:04.364Z,19.98
2022-10-25T13:09:35.982Z,20.62
2022-10-25T13:12:07.633Z,21.06
2022-10-25T13:14:40.235Z,20.91
2022-10-25T13:18:00.856Z,20.38
2022-10-25T13:20:53.200Z,19.93
2022-10-25T13:24:02.940Z,19.70
2022-10-25T13:27:24.532Z,19.59
2022-10-25T13:30:27.442Z,19.50
2022-10-25T13:33:33.754Z,19.30
2022-10-25T13:36:06.626Z,19.17
2022-10-25T13:38:39.725Z,19.02
2022-10-25T13:41:15.394Z,18.95
2022-10-25T13:44:02.308Z,18.90
2022-10-25T13:46:38.470Z,18.76
2022-10-25T13:49:38.992Z,18.60
2022-10-25T13:52:24.573Z,18.59
2022-10-25T13:54:56.419Z,18.68
2022-10-25T13:57:54.068Z,18.75
2022-10-25T14:00:37.137Z,18.83
2022-10-25T14:03:35.812Z,18.69
2022-10-25T14:06:13.973Z,18.54
2022-10-25T14:08:54.011Z,18.48
2022-10-25T14:11:28.210Z,18.53
2022-10-25T14:14:01.572Z,18.58
2022-10-25T14:16:33.508Z,18.56
2022-10-25T14:19:15.578Z,18.55
2022-10-25T14:21:47.849Z,18.60
2022-10-25T14:24:17.770Z,18.61
2022-10-25T14:26:55.675Z,18.57
2022-10-25T14:29:26.471Z,18.48
2022-10-25T14:31:55.686Z,18.34
2022-10-25T14:34:28.197Z,18.23
2022-10-25T14:36:58.505Z,18.18
2022-10-25T14:39:28.655Z,18.16
2022-10-25T14:41:59.063Z,18.15
2022-10-25T14:44:30.811Z,18.16
2022-10-25T14:47:01.041Z,18.10
2022-10-25T14:49:30.496Z,18.04
2022-10-25T14:52:01.798Z,17.99
2022-10-25T14:54:33.687Z,17.98
2022-10-25T14:57:04.789Z,17.99
2022-10-25T14:59:42.704Z,17.98
2022-10-25T15:02:19.345Z,18.00
2022-10-25T15:04:51.489Z,18.08
2022-10-25T15:07:24.310Z,18.10
2022-10-25T15:09:56.372Z,18.06
2022-10-25T15:12:26.205Z,18.01
2022-10-25T15:14:55.103Z,17.98
2022-10-25T15:17:30.749Z,17.92
2022-10-25T15:20:07.831Z,17.83
2022-10-25T15:22:46.376Z,17.72
2022-10-25T15:25:28.251Z,17.63
2022-10-25T15:27:56.725Z,17.54
2022-10-25T15:30:36.742Z,17.45
2022-10-25T15:33:09.883Z,17.43
2022-10-25T15:35:48.298Z,17.40
2022-10-25T15:38:17.462Z,17.39
2022-10-25T15:40:46.132Z,17.37
2022-10-25T15:43:14.660Z,17.32
2022-10-25T15:45:43.968Z,17.23
2022-10-25T15:48:16.815Z,17.14
2022-10-25T15:50:50.407Z,17.06
2022-10-25T15:53:18.959Z,17.04
2022-10-25T15:55:47.340Z,17.04
2022-10-25T15:58:15.449Z,17.01
2022-10-25T16:00:44.152Z,16.92
2022-10-25T16:03:19.639Z,16.80
2022-10-25T16:05:50.990Z,16.71
2022-10-25T16:08:19.297Z,16.60
2022-10-25T16:10:47.586Z,16.47
2022-10-25T16:13:22.829Z,16.38
2022-10-25T16:15:50.957Z,16.28
2022-10-25T16:18:19.181Z,16.22
2022-10-25T16:20:48.788Z,16.13
2022-10-25T16:23:18.536Z,16.02
2022-10-25T16:25:46.702Z,15.95
2022-10-25T16:28:15.385Z,15.90
2022-10-25T16:30:45.506Z,15.88
2022-10-25T16:33:13.744Z,15.90
2022-10-25T16:35:42.505Z,15.91
2022-10-25T16:38:11.979Z,15.89
2022-10-25T16:40:40.510Z,15.86
2022-10-25T16:43:12.274Z,15.79
2022-10-25T16:45:40.735Z,15.70
2022-10-25T16:48:08.878Z,15.58
2022-10-25T16:50:37.114Z,15.45
2022-10-25T16:53:09.153Z,15.33
2022-10-25T16:55:38.649Z,15.25
2022-10-25T16:58:06.907Z,15.14
2022-10-25T17:00:36.022Z,15.07
2022-10-25T17:03:06.364Z,15.03
2022-10-25T17:05:34.489Z,15.00
2022-10-25T17:08:02.828Z,14.96
2022-10-25T17:10:31.101Z,14.93
2022-10-25T17:13:03.433Z,14.97
2022-10-25T17:15:33.142Z,15.05
2022-10-25T17:18:01.253Z,15.11
2022-10-25T17:20:29.695Z,15.16
2022-10-25T17:22:57.906Z,15.23
2022-10-25T17:25:25.999Z,15.30
2022-10-25T17:27:55.042Z,15.35
2022-10-25T17:30:24.486Z,15.37
2022-10-25T17:32:53.278Z,15.36
2022-10-25T17:35:28.561Z,15.32
2022-10-25T17:37:58.303Z,15.29
2022-10-25T17:40:26.457Z,15.24
2022-10-25T17:42:55.019Z,15.22
2022-10-25T17:45:24.509Z,15.21
2022-10-25T17:47:52.633Z,15.20
2022-10-25T17:50:22.173Z,15.15
2022-10-25T17:52:51.681Z,15.16
2022-10-25T17:55:20.024Z,15.23
2022-10-25T17:57:48.444Z,15.29
2022-10-25T18:00:17.627Z,15.34
2022-10-25T18:02:50.560Z,15.34
2022-10-25T18:05:20.955Z,15.34
2022-10-25T18:07:50.277Z,15.34
2022-10-25T18:10:18.574Z,15.34
2022-10-25T18:12:47.070Z,15.34
2022-10-25T18:15:15.454Z,15.32
2022-10-25T18:17:46.304Z,15.26
2022-10-25T18:20:17.351Z,15.19
2022-10-25T18:22:45.782Z,15.12
2022-10-25T18:25:14.059Z,15.06
2022-10-25T18:27:42.125Z,15.02
2022-10-25T18:30:12.382Z,14.97
2022-10-25T18:32:40.454Z,14.90
2022-10-25T18:35:09.592Z,14.84
2022-10-25T18:37:39.025Z,14.80
2022-10-25T18:40:10.152Z,14.77
2022-10-25T18:42:38.670Z,14.74
2022-10-25T18:45:08.161Z,14.70
2022-10-25T18:47:36.386Z,14.65
2022-10-25T18:50:05.035Z,14.60
2022-10-25T18:52:34.344Z,14.57
2022-10-25T18:55:03.885Z,14.54
2022-10-25T18:57:32.003Z,14.50
2022-10-25T19:00:00.105Z,14.46
2022-10-25T19:02:28.414Z,14.41
2022-10-25T19:04:56.841Z,14.38
2022-10-25T19:07:25.090Z,14.32
2022-10-25T19:09:53.300Z,14.27
2022-10-25T19:12:22.765Z,14.24
2022-10-25T19:14:50.929Z,14.21
2022-10-25T19:17:19.023Z,14.17
2022-10-25T19:19:47.295Z,14.11
2022-10-25T19:22:15.756Z,14.07
2022-10-25T19:24:43.846Z,14.01
2022-10-25T19:27:11.989Z,13.97
2022-10-25T19:29:41.580Z,13.93
2022-10-25T19:32:09.784Z,13.90
2022-10-25T19:34:37.944Z,13.86
2022-10-25T19:37:07.878Z,13.84
2022-10-25T19:39:37.734Z,13.83
2022-10-25T19:42:06.157Z,13.81
2022-10-25T19:44:36.601Z,13.83
2022-10-25T19:47:06.677Z,13.80
2022-10-25T19:49:34.810Z,13.77
2022-10-25T19:52:03.139Z,13.73
2022-10-25T19:54:31.345Z,13.68
2022-10-25T19:56:59.492Z,13.64
2022-10-25T19:59:27.661Z,13.60
2022-10-25T20:01:55.992Z,13.58
2022-10-25T20:04:26.177Z,13.55
2022-10-25T20:06:54.315Z,13.52
2022-10-25T20:09:22.586Z,13.50
2022-10-25T20:11:50.718Z,13.45
2022-10-25T20:14:18.825Z,13.40
2022-10-25T20:16:46.901Z,13.35
2022-10-25T20:19:15.667Z,13.32
2022-10-25T20:21:45.271Z,13.28
2022-10-25T20:24:13.379Z,13.26
2022-10-25T20:26:44.575Z,13.22
2022-10-25T20:29:20.307Z,13.19
2022-10-25T20:31:50.406Z,13.14
2022-10-25T20:34:19.168Z,13.13
2022-10-25T20:36:51.441Z,13.09
2022-10-25T20:39:19.624Z,13.06
2022-10-25T20:41:47.751Z,13.03
2022-10-25T20:44:16.048Z,13.01
2022-10-25T20:46:44.236Z,12.96
2022-10-25T20:49:12.504Z,12.93
2022-10-25T20:51:40.869Z,12.88
2022-10-25T20:54:10.396Z,12.82
2022-10-25T20:56:39.660Z,12.80
2022-10-25T20:59:08.885Z,12.78
2022-10-25T21:01:37.482Z,12.78
2022-10-25T21:04:06.623Z,12.74
2022-10-25T21:06:34.786Z,12.73
2022-10-25T21:09:03.163Z,12.71
2022-10-25T21:11:32.768Z,12.72
2022-10-25T21:14:00.909Z,12.71
2022-10-25T21:16:29.308Z,12.71
2022-10-25T21:18:57.439Z,12.72
2022-10-25T21:21:25.592Z,12.71
2022-10-25T21:23:56.661Z,12.70
2022-10-25T21:26:25.097Z,12.69
2022-10-25T21:28:54.680Z,12.66
2022-10-25T21:31:22.849Z,12.64
2022-10-25T21:33:52.520Z,12.63
2022-10-25T21:36:22.604Z,12.61
2022-10-25T21:38:50.986Z,12.59
2022-10-25T21:41:26.537Z,12.59
2022-10-25T21:43:57.848Z,12.58
2022-10-25T21:46:28.224Z,12.57
2022-10-25T21:48:56.368Z,12.55
2022-10-25T21:51:25.581Z,12.52
2022-10-25T21:53:54.485Z,12.51
2022-10-25T21:56:30.561Z,12.50
2022-10-25T21:59:01.606Z,12.47
2022-10-25T22:01:31.638Z,12.46
2022-10-25T22:03:59.869Z,12.44
2022-10-25T22:06:28.916Z,12.41
2022-10-25T22:08:57.939Z,12.41
2022-10-25T22:11:28.141Z,12.37
2022-10-25T22:13:57.991Z,12.31
2022-10-25T22:16:28.666Z,12.26
2022-10-25T22:18:58.825Z,12.20
2022-10-25T22:21:29.391Z,12.19
2022-10-25T22:23:57.488Z,12.18
2022-10-25T22:26:25.993Z,12.16
2022-10-25T22:28:55.835Z,12.14
2022-10-25T22:31:24.673Z,12.10
2022-10-25T22:33:57.058Z,12.06
2022-10-25T22:36:27.159Z,12.02
2022-10-25T22:38:56.646Z,11.98
2022-10-25T22:41:27.566Z,11.95
2022-10-25T22:43:56.316Z,11.89
2022-10-25T22:46:26.688Z,11.86
2022-10-25T22:48:57.989Z,11.82
2022-10-25T22:51:28.743Z,11.79
2022-10-25T22:53:57.273Z,11.73
2022-10-25T22:56:30.735Z,11.69
2022-10-25T22:59:01.135Z,11.65
2022-10-25T23:01:31.827Z,11.60
2022-10-25T23:04:03.964Z,11.57
2022-10-25T23:06:34.146Z,11.55
2022-10-25T23:09:05.275Z,11.52
2022-10-25T23:11:36.136Z,11.48
2022-10-25T23:14:05.219Z,11.44
2022-10-25T23:16:33.470Z,11.42
2022-10-25T23:19:03.209Z,11.41
2022-10-25T23:21:31.600Z,11.39
2022-10-25T23:24:01.534Z,11.38
2022-10-25T23:26:32.530Z,11.38
2022-10-25T23:29:01.668Z,11.38
2022-10-25T23:31:31.052Z,11.37
2022-10-25T23:34:02.329Z,11.34
2022-10-25T23:36:37.203Z,11.35
2022-10-25T23:39:07.309Z,11.34
2022-10-25T23:41:35.366Z,11.31
2022-10-25T23:44:03.673Z,11.31
2022-10-25T23:46:31.773Z,11.30
2022-10-25T23:49:00.073Z,11.31
2022-10-25T23:51:29.557Z,11.31
2022-10-25T23:53:57.651Z,11.30
2022-10-25T23:56:25.950Z,11.30
2022-10-25T23:58:54.251Z,11.30
